createdAt,value
2018-02-10T00:00:28.530Z,74.83
2018-02-10T00:02:56.796Z,87.67
2018-02-10T00:05:25.795Z,112.87
2018-02-10T00:07:54.070Z,89.40
2018-02-10T00:10:22.434Z,90.73
2018-02-10T00:12:50.075Z,91.60
2018-02-10T00:15:17.630Z,97.67
2018-02-10T00:17:45.500Z,85.80
2018-02-10T00:20:13.098Z,101.30
2018-02-10T00:22:41.558Z,91.20
2018-02-10T00:25:09.133Z,98.87
2018-02-10T00:27:37.529Z,89.83
2018-02-10T00:30:05.774Z,112.63
2018-02-10T00:32:34.024Z,89.77
2018-02-10T00:35:01.582Z,101.37
2018-02-10T00:37:29.107Z,83.50
2018-02-10T00:39:56.660Z,89.67
2018-02-10T00:42:24.178Z,105.33
2018-02-10T00:44:53.280Z,108.60
2018-02-10T00:47:20.754Z,85.87
2018-02-10T00:49:49.104Z,80.53
2018-02-10T00:52:16.575Z,96.73
2018-02-10T00:54:44.925Z,104.90
2018-02-10T00:57:12.409Z,105.43
2018-02-10T00:59:40.783Z,98.00
2018-02-10T01:02:08.285Z,117.90
2018-02-10T01:04:35.835Z,91.03
2018-02-10T01:07:04.369Z,91.87
2018-02-10T01:09:32.622Z,125.17
2018-02-10T01:12:00.420Z,99.27
2018-02-10T01:14:28.527Z,116.70
2018-02-10T01:16:56.042Z,100.83
2018-02-10T01:19:25.022Z,88.83
2018-02-10T01:21:52.546Z,99.20
2018-02-10T01:24:20.058Z,104.53
2018-02-10T01:26:47.652Z,104.00
2018-02-10T01:29:15.141Z,94.93
2018-02-10T01:31:42.652Z,98.10
2018-02-10T01:34:11.851Z,108.27
2018-02-10T01:36:40.169Z,111.70
2018-02-10T01:39:07.697Z,124.00
2018-02-10T01:41:35.918Z,107.03
2018-02-10T01:44:03.414Z,121.63
2018-02-10T01:46:31.770Z,99.40
2018-02-10T01:48:59.243Z,102.63
2018-02-10T01:51:27.565Z,91.63
2018-02-10T01:53:55.072Z,137.53
2018-02-10T01:56:22.664Z,114.47
2018-02-10T01:58:50.126Z,115.73
2018-02-10T02:01:17.648Z,112.20
2018-02-10T02:03:46.806Z,105.67
2018-02-10T02:06:14.348Z,106.93
2018-02-10T02:08:41.861Z,86.20
2018-02-10T02:11:09.446Z,66.30
2018-02-10T02:13:36.929Z,81.73
2018-02-10T02:16:04.422Z,81.73
2018-02-10T02:18:32.768Z,121.30
2018-02-10T02:21:00.354Z,107.10
2018-02-10T02:23:28.615Z,128.40
2018-02-10T02:25:56.178Z,121.37
2018-02-10T02:28:23.623Z,123.90
2018-02-10T02:30:51.118Z,105.87
2018-02-10T02:33:20.282Z,93.67
2018-02-10T02:35:47.797Z,111.50
2018-02-10T02:38:15.329Z,91.50
2018-02-10T02:40:42.865Z,97.50
2018-02-10T02:43:10.343Z,97.20
2018-02-10T02:45:37.847Z,97.83
2018-02-10T02:48:05.357Z,89.67
2018-02-10T02:50:32.994Z,90.87
2018-02-10T02:53:01.061Z,131.43
2018-02-10T02:55:28.558Z,114.60
2018-02-10T02:57:56.846Z,121.07
2018-02-10T03:00:25.186Z,101.70
2018-02-10T03:02:53.596Z,80.30
2018-02-10T03:05:21.924Z,106.57
2018-02-10T03:07:50.614Z,124.10
2018-02-10T03:10:18.196Z,112.03
2018-02-10T03:12:45.763Z,119.10
2018-02-10T03:15:14.896Z,133.00
2018-02-10T03:17:43.309Z,114.57
2018-02-10T03:20:10.841Z,114.87
2018-02-10T03:22:38.326Z,116.53
2018-02-10T03:25:05.824Z,113.23
2018-02-10T03:27:34.064Z,122.20
2018-02-10T03:30:01.713Z,101.83
2018-02-10T03:32:29.250Z,124.40
2018-02-10T03:34:56.723Z,135.23
2018-02-10T03:37:24.234Z,126.20
2018-02-10T03:39:52.556Z,105.23
2018-02-10T03:42:20.058Z,83.43
2018-02-10T03:44:47.549Z,109.63
2018-02-10T03:47:15.083Z,112.43
2018-02-10T03:49:42.575Z,122.23
2018-02-10T03:52:10.142Z,126.73
2018-02-10T03:54:37.655Z,112.40
2018-02-10T03:57:05.174Z,122.77
2018-02-10T03:59:32.747Z,105.27
2018-02-10T04:02:00.228Z,104.67
2018-02-10T04:04:35.840Z,111.47
2018-02-10T04:07:06.810Z,111.33
2018-02-10T04:09:34.330Z,104.93
2018-02-10T04:12:01.850Z,124.60
2018-02-10T04:14:30.150Z,121.23
2018-02-10T04:16:57.730Z,118.83
2018-02-10T04:19:26.030Z,140.93
2018-02-10T04:21:53.563Z,120.97
2018-02-10T04:24:21.074Z,115.50
2018-02-10T04:26:49.380Z,114.90
2018-02-10T04:29:17.051Z,100.47
2018-02-10T04:31:44.514Z,121.63
2018-02-10T04:34:11.996Z,123.93
2018-02-10T04:36:39.568Z,124.73
2018-02-10T04:39:07.829Z,117.00
2018-02-10T04:41:36.073Z,136.43
2018-02-10T04:44:03.558Z,135.57
2018-02-10T04:46:31.803Z,133.77
2018-02-10T04:48:59.294Z,118.20
2018-02-10T04:51:26.763Z,104.40
2018-02-10T04:53:55.006Z,145.33
2018-02-10T04:56:22.521Z,117.27
2018-02-10T04:58:50.746Z,97.90
2018-02-10T05:01:18.233Z,127.57
2018-02-10T05:03:46.471Z,118.10
2018-02-10T05:06:13.981Z,133.33
2018-02-10T05:08:41.445Z,127.20
2018-02-10T05:11:08.898Z,134.70
2018-02-10T05:13:36.378Z,142.73
2018-02-10T05:16:03.849Z,140.07
2018-02-10T05:18:31.329Z,110.43
2018-02-10T05:21:00.311Z,109.50
2018-02-10T05:23:27.778Z,121.87
2018-02-10T05:25:56.034Z,117.43
2018-02-10T05:28:23.515Z,121.47
2018-02-10T05:30:51.759Z,146.20
2018-02-10T05:33:19.230Z,178.90
2018-02-10T05:35:46.706Z,117.63
2018-02-10T05:38:14.192Z,165.47
2018-02-10T05:40:41.670Z,123.67
2018-02-10T05:43:09.491Z,136.80
2018-02-10T05:45:37.717Z,138.97
2018-02-10T05:48:05.218Z,157.10
2018-02-10T05:50:32.698Z,146.97
2018-02-10T05:53:00.258Z,192.73
2018-02-10T05:55:27.723Z,148.27
2018-02-10T05:57:55.206Z,162.23
2018-02-10T06:00:22.701Z,142.73
2018-02-10T06:02:50.938Z,193.77
2018-02-10T06:05:18.481Z,154.47
2018-02-10T06:07:45.954Z,163.13
2018-02-10T06:10:13.741Z,179.67
2018-02-10T06:12:41.321Z,142.43
2018-02-10T06:15:08.818Z,191.00
2018-02-10T06:17:36.290Z,141.77
2018-02-10T06:20:03.766Z,129.17
2018-02-10T06:22:32.022Z,188.07
2018-02-10T06:24:59.508Z,163.83
2018-02-10T06:27:26.989Z,155.67
2018-02-10T06:29:55.229Z,117.83
2018-02-10T06:32:22.705Z,156.17
2018-02-10T06:34:50.941Z,132.03
2018-02-10T06:37:18.581Z,124.23
2018-02-10T06:39:46.093Z,113.37
2018-02-10T06:42:13.618Z,159.67
2018-02-10T06:44:41.097Z,106.43
2018-02-10T06:47:08.684Z,153.40
2018-02-10T06:49:36.934Z,122.00
2018-02-10T06:52:04.422Z,120.37
2018-02-10T06:54:32.658Z,96.50
2018-02-10T06:57:00.155Z,120.40
2018-02-10T06:59:28.479Z,114.83
2018-02-10T07:01:56.723Z,101.37
2018-02-10T07:04:25.870Z,133.53
2018-02-10T07:06:53.497Z,125.23
2018-02-10T07:09:21.075Z,150.93
2018-02-10T07:11:48.543Z,175.30
2018-02-10T07:14:16.206Z,131.07
2018-02-10T07:16:45.487Z,143.73
2018-02-10T07:19:13.004Z,155.83
2018-02-10T07:21:41.154Z,125.83
2018-02-10T07:24:09.927Z,198.70
2018-02-10T07:26:39.353Z,147.83
2018-02-10T07:29:07.903Z,140.60
2018-02-10T07:31:36.104Z,226.00
2018-02-10T07:34:04.664Z,164.33
2018-02-10T07:36:33.762Z,179.07
2018-02-10T07:39:01.444Z,171.77
2018-02-10T07:41:30.537Z,180.80
2018-02-10T07:43:58.550Z,198.57
2018-02-10T07:46:26.307Z,166.63
2018-02-10T07:48:56.209Z,139.60
2018-02-10T07:51:24.782Z,139.10
2018-02-10T07:53:53.927Z,154.70
2018-02-10T07:56:21.946Z,149.20
2018-02-10T07:58:50.202Z,130.40
2018-02-10T08:01:17.774Z,106.10
2018-02-10T08:03:46.078Z,119.13
2018-02-10T08:06:14.577Z,116.40
2018-02-10T08:08:49.125Z,123.40
2018-02-10T08:11:17.676Z,108.30
2018-02-10T08:13:46.081Z,125.20
2018-02-10T08:16:14.395Z,114.80
2018-02-10T08:18:42.686Z,104.63
2018-02-10T08:21:11.236Z,107.97
2018-02-10T08:23:38.718Z,115.10
2018-02-10T08:26:07.821Z,137.97
2018-02-10T08:28:35.345Z,114.37
2018-02-10T08:31:02.891Z,101.27
2018-02-10T08:33:30.397Z,93.73
2018-02-10T08:35:58.236Z,109.37
2018-02-10T08:38:27.113Z,106.40
2018-02-10T08:40:55.438Z,87.77
2018-02-10T08:43:23.029Z,118.73
2018-02-10T08:45:50.518Z,96.63
2018-02-10T08:48:19.494Z,104.80
2018-02-10T08:50:46.977Z,107.83
2018-02-10T08:53:15.870Z,86.67
2018-02-10T08:55:44.146Z,87.87
2018-02-10T08:58:12.386Z,101.47
2018-02-10T09:00:39.852Z,100.67
2018-02-10T09:03:08.177Z,79.70
2018-02-10T09:05:35.658Z,91.97
2018-02-10T09:08:03.145Z,92.63
2018-02-10T09:10:30.730Z,103.33
2018-02-10T09:12:58.966Z,96.57
2018-02-10T09:15:26.463Z,110.17
2018-02-10T09:17:54.743Z,93.83
2018-02-10T09:20:24.539Z,93.20
2018-02-10T09:22:51.999Z,88.73
2018-02-10T09:25:19.474Z,83.53
2018-02-10T09:27:48.542Z,85.03
2018-02-10T09:30:16.923Z,81.27
2018-02-10T09:32:44.392Z,92.20
2018-02-10T09:35:12.641Z,95.10
2018-02-10T09:37:40.198Z,78.90
2018-02-10T09:40:07.678Z,97.17
2018-02-10T09:42:35.922Z,79.20
2018-02-10T09:45:03.402Z,74.47
2018-02-10T09:47:32.802Z,74.07
2018-02-10T09:50:01.108Z,84.00
2018-02-10T09:52:29.353Z,83.17
2018-02-10T09:54:57.633Z,76.00
2018-02-10T09:57:26.114Z,79.80
2018-02-10T09:59:54.111Z,85.20
2018-02-10T10:02:21.657Z,69.93
2018-02-10T10:04:52.951Z,63.90
2018-02-10T10:07:20.488Z,64.93
2018-02-10T10:09:48.768Z,54.40
2018-02-10T10:12:16.245Z,53.57
2018-02-10T10:14:44.214Z,58.90
2018-02-10T10:17:11.722Z,56.93
2018-02-10T10:19:40.036Z,41.73
2018-02-10T10:22:08.370Z,46.20
2018-02-10T10:24:36.625Z,54.23
2018-02-10T10:27:04.116Z,38.53
2018-02-10T10:29:32.371Z,32.37
2018-02-10T10:31:59.836Z,21.53
2018-02-10T10:34:28.170Z,8.43
2018-02-10T10:36:55.672Z,7.07
2018-02-10T10:39:24.071Z,20.87
2018-02-10T10:41:51.525Z,13.40
2018-02-10T10:44:19.579Z,15.93
2018-02-10T10:46:49.320Z,9.90
2018-02-10T10:49:16.794Z,11.83
2018-02-10T10:51:44.335Z,9.63
2018-02-10T10:54:11.773Z,9.97
2018-02-10T10:56:39.254Z,12.47
2018-02-10T10:59:06.726Z,13.50
2018-02-10T11:01:34.196Z,16.03
2018-02-10T11:04:01.653Z,3.37
2018-02-10T11:06:29.950Z,6.07
2018-02-10T11:08:57.485Z,6.67
2018-02-10T11:11:25.070Z,8.00
2018-02-10T11:13:52.981Z,8.63
2018-02-10T11:16:20.454Z,13.77
2018-02-10T11:18:48.807Z,10.67
2018-02-10T11:21:16.269Z,9.33
2018-02-10T11:23:43.773Z,11.33
2018-02-10T11:26:11.242Z,8.27
2018-02-10T11:28:38.711Z,7.23
2018-02-10T11:31:06.958Z,9.93
2018-02-10T11:33:34.489Z,9.50
2018-02-10T11:36:02.687Z,10.93
2018-02-10T11:38:30.186Z,12.83
2018-02-10T11:40:58.415Z,10.00
2018-02-10T11:43:26.903Z,9.03
2018-02-10T11:45:54.370Z,15.53
2018-02-10T11:48:22.617Z,7.10
2018-02-10T11:50:50.103Z,4.20
2018-02-10T11:53:17.590Z,4.70
2018-02-10T11:55:45.054Z,8.63
2018-02-10T11:58:12.565Z,4.17
2018-02-10T12:00:40.222Z,9.70
2018-02-10T12:03:08.318Z,12.63
2018-02-10T12:05:36.547Z,5.03
2018-02-10T12:08:04.062Z,5.17
2018-02-10T12:10:31.551Z,7.30
2018-02-10T12:12:59.901Z,5.20
2018-02-10T12:15:27.318Z,6.00
2018-02-10T12:17:54.779Z,5.03
2018-02-10T12:20:22.246Z,6.90
2018-02-10T12:22:50.542Z,6.50
2018-02-10T12:25:18.845Z,6.87
2018-02-10T12:27:47.382Z,5.87
2018-02-10T12:30:14.956Z,6.50
2018-02-10T12:32:42.606Z,12.97
2018-02-10T12:35:10.890Z,8.20
2018-02-10T12:37:39.525Z,1.50
2018-02-10T12:40:07.003Z,4.70
2018-02-10T12:42:34.834Z,5.70
2018-02-10T12:45:03.992Z,11.27
2018-02-10T12:47:37.938Z,7.10
2018-02-10T12:50:05.408Z,8.87
2018-02-10T12:52:32.863Z,3.10
2018-02-10T12:55:00.373Z,6.87
2018-02-10T12:57:28.314Z,6.73
2018-02-10T12:59:55.794Z,8.80
2018-02-10T13:02:24.013Z,6.63
2018-02-10T13:04:52.050Z,8.73
2018-02-10T13:07:20.296Z,8.20
2018-02-10T13:09:47.766Z,6.80
2018-02-10T13:12:15.233Z,3.53
2018-02-10T13:14:43.452Z,5.40
2018-02-10T13:17:10.925Z,8.97
2018-02-10T13:19:38.395Z,6.63
2018-02-10T13:22:05.866Z,6.87
2018-02-10T13:24:34.188Z,5.20
2018-02-10T13:27:01.682Z,5.40
2018-02-10T13:29:29.953Z,7.70
2018-02-10T13:31:57.422Z,5.10
2018-02-10T13:34:26.097Z,11.90
2018-02-10T13:36:53.562Z,10.10
2018-02-10T13:39:22.525Z,6.07
2018-02-10T13:41:49.994Z,11.63
2018-02-10T13:44:17.557Z,9.63
2018-02-10T13:46:45.027Z,8.17
2018-02-10T13:49:12.599Z,6.60
2018-02-10T13:51:40.857Z,7.50
2018-02-10T13:54:08.391Z,6.93
2018-02-10T13:56:35.898Z,5.13
2018-02-10T13:59:04.140Z,7.30
2018-02-10T14:01:31.627Z,7.33
2018-02-10T14:04:02.054Z,6.27
2018-02-10T14:06:29.599Z,8.00
2018-02-10T14:08:57.180Z,8.80
2018-02-10T14:11:25.738Z,7.67
2018-02-10T14:13:53.389Z,3.50
2018-02-10T14:16:21.759Z,7.40
2018-02-10T14:18:49.356Z,10.40
2018-02-10T14:21:16.878Z,11.00
2018-02-10T14:23:44.438Z,14.03
2018-02-10T14:26:12.235Z,15.20
2018-02-10T14:28:40.537Z,7.93
2018-02-10T14:31:08.248Z,8.53
2018-02-10T14:33:35.715Z,11.30
2018-02-10T14:36:03.186Z,13.90
2018-02-10T14:38:31.444Z,5.80
2018-02-10T14:40:58.969Z,12.80
2018-02-10T14:43:26.447Z,6.70
2018-02-10T14:45:53.906Z,6.30
2018-02-10T14:48:21.369Z,8.20
2018-02-10T14:50:49.728Z,11.07
2018-02-10T14:53:17.177Z,9.80
2018-02-10T14:55:44.654Z,10.53
2018-02-10T14:58:12.495Z,13.00
2018-02-10T15:00:39.950Z,11.90
2018-02-10T15:03:07.433Z,9.27
2018-02-10T15:05:35.262Z,7.27
2018-02-10T15:08:02.758Z,7.30
2018-02-10T15:10:30.238Z,7.70
2018-02-10T15:12:58.463Z,5.50
2018-02-10T15:15:25.918Z,7.43
2018-02-10T15:17:53.413Z,7.10
2018-02-10T15:20:21.671Z,5.33
2018-02-10T15:22:49.128Z,7.10
2018-02-10T15:25:16.610Z,5.97
2018-02-10T15:27:44.073Z,5.20
2018-02-10T15:30:23.400Z,4.53
2018-02-10T15:33:02.714Z,10.40
2018-02-10T15:35:30.194Z,4.47
2018-02-10T15:37:59.310Z,8.00
2018-02-10T15:40:26.849Z,21.53
2018-02-10T15:42:54.385Z,7.70
2018-02-10T15:45:21.836Z,9.70
2018-02-10T15:47:49.290Z,9.90
2018-02-10T15:50:16.778Z,8.40
2018-02-10T15:52:44.999Z,8.03
2018-02-10T15:55:12.484Z,6.90
2018-02-10T15:57:40.019Z,7.13
2018-02-10T16:00:07.492Z,11.00
2018-02-10T16:02:34.980Z,4.83
2018-02-10T16:05:02.717Z,7.40
2018-02-10T16:07:30.627Z,9.47
2018-02-10T16:09:59.081Z,9.47
2018-02-10T16:12:26.940Z,20.07
2018-02-10T16:14:54.692Z,8.13
2018-02-10T16:17:22.478Z,10.33
2018-02-10T16:19:49.967Z,9.07
2018-02-10T16:22:17.672Z,7.80
2018-02-10T16:24:45.143Z,6.73
2018-02-10T16:27:12.812Z,5.33
2018-02-10T16:29:40.342Z,5.67
2018-02-10T16:32:07.905Z,7.33
2018-02-10T16:34:35.415Z,6.37
2018-02-10T16:37:03.662Z,7.37
2018-02-10T16:39:31.122Z,6.27
2018-02-10T16:41:58.605Z,7.93
2018-02-10T16:44:26.829Z,14.00
2018-02-10T16:46:55.101Z,7.50
2018-02-10T16:49:22.601Z,9.77
2018-02-10T16:51:50.832Z,19.53
2018-02-10T16:54:18.423Z,7.63
2018-02-10T16:56:45.887Z,10.10
2018-02-10T16:59:13.373Z,16.80
2018-02-10T17:01:42.488Z,14.00
2018-02-10T17:04:10.007Z,11.33
2018-02-10T17:06:37.584Z,17.20
2018-02-10T17:09:06.025Z,12.20
2018-02-10T17:11:33.538Z,6.93
2018-02-10T17:14:01.061Z,12.50
2018-02-10T17:16:29.309Z,13.43
2018-02-10T17:18:56.843Z,8.00
2018-02-10T17:21:24.854Z,14.17
2018-02-10T17:23:53.206Z,9.33
2018-02-10T17:26:20.767Z,7.47
2018-02-10T17:28:48.277Z,12.40
2018-02-10T17:31:15.886Z,10.17
2018-02-10T17:33:43.626Z,8.83
2018-02-10T17:36:11.558Z,13.00
2018-02-10T17:38:39.125Z,14.93
2018-02-10T17:41:06.663Z,9.73
2018-02-10T17:43:34.913Z,7.13
2018-02-10T17:46:02.399Z,9.13
2018-02-10T17:48:30.653Z,10.97
2018-02-10T17:50:58.222Z,8.57
2018-02-10T17:53:25.900Z,16.80
2018-02-10T17:55:54.117Z,13.27
2018-02-10T17:58:21.610Z,9.37
2018-02-10T18:00:49.758Z,9.43
2018-02-10T18:03:17.247Z,14.53
2018-02-10T18:05:44.705Z,8.40
2018-02-10T18:08:12.943Z,16.20
2018-02-10T18:10:40.472Z,14.77
2018-02-10T18:13:07.982Z,9.77
2018-02-10T18:15:35.496Z,12.97
2018-02-10T18:18:03.135Z,14.43
2018-02-10T18:20:31.375Z,9.13
2018-02-10T18:23:00.578Z,11.03
2018-02-10T18:25:28.063Z,8.00
2018-02-10T18:27:56.293Z,4.80
2018-02-10T18:30:23.770Z,7.50
2018-02-10T18:32:52.046Z,7.80
2018-02-10T18:35:21.034Z,10.40
2018-02-10T18:37:48.504Z,11.57
2018-02-10T18:40:16.746Z,9.80
2018-02-10T18:42:44.325Z,12.77
2018-02-10T18:45:11.882Z,7.57
2018-02-10T18:47:39.453Z,8.73
2018-02-10T18:50:06.964Z,11.27
2018-02-10T18:52:34.473Z,14.57
2018-02-10T18:55:02.789Z,9.60
2018-02-10T18:57:31.078Z,10.43
2018-02-10T18:59:58.942Z,11.20
2018-02-10T19:02:26.423Z,10.93
2018-02-10T19:04:54.023Z,8.00
2018-02-10T19:07:23.191Z,22.10
2018-02-10T19:09:51.479Z,9.90
2018-02-10T19:12:20.498Z,13.27
2018-02-10T19:14:48.046Z,12.83
2018-02-10T19:17:16.317Z,11.57
2018-02-10T19:19:44.631Z,11.30
2018-02-10T19:22:12.134Z,10.63
2018-02-10T19:24:39.655Z,17.03
2018-02-10T19:27:07.200Z,7.87
2018-02-10T19:29:34.719Z,13.93
2018-02-10T19:32:02.994Z,8.83
2018-02-10T19:34:31.267Z,9.90
2018-02-10T19:36:59.519Z,13.63
2018-02-10T19:39:27.035Z,12.90
2018-02-10T19:41:54.552Z,13.33
2018-02-10T19:44:22.136Z,9.70
2018-02-10T19:46:50.535Z,11.97
2018-02-10T19:49:18.064Z,12.50
2018-02-10T19:51:45.784Z,13.93
2018-02-10T19:54:13.329Z,16.47
2018-02-10T19:56:41.408Z,10.50
2018-02-10T19:59:09.229Z,11.43
2018-02-10T20:01:37.011Z,7.67
2018-02-10T20:04:04.541Z,17.13
2018-02-10T20:06:32.833Z,9.93
2018-02-10T20:09:00.291Z,10.60
2018-02-10T20:11:28.531Z,10.10
2018-02-10T20:13:56.018Z,10.20
2018-02-10T20:16:24.320Z,11.27
2018-02-10T20:18:51.833Z,19.60
2018-02-10T20:21:20.438Z,19.27
2018-02-10T20:23:48.000Z,14.33
2018-02-10T20:26:15.526Z,11.87
2018-02-10T20:28:43.088Z,10.27
2018-02-10T20:31:10.569Z,11.10
2018-02-10T20:33:38.247Z,13.07
2018-02-10T20:36:05.721Z,15.30
2018-02-10T20:38:33.247Z,11.67
2018-02-10T20:41:00.783Z,12.70
2018-02-10T20:43:28.322Z,12.47
2018-02-10T20:45:55.854Z,13.00
2018-02-10T20:48:23.400Z,13.67
2018-02-10T20:50:50.946Z,11.00
2018-02-10T20:53:18.490Z,12.80
2018-02-10T20:55:46.799Z,11.67
2018-02-10T20:58:14.292Z,11.47
2018-02-10T21:00:42.268Z,6.63
2018-02-10T21:03:09.801Z,10.53
2018-02-10T21:05:37.576Z,16.77
2018-02-10T21:08:05.159Z,16.63
2018-02-10T21:10:32.866Z,21.93
2018-02-10T21:13:00.760Z,14.27
2018-02-10T21:15:28.673Z,16.07
2018-02-10T21:17:56.316Z,14.60
2018-02-10T21:20:23.925Z,11.87
2018-02-10T21:22:51.454Z,9.07
2018-02-10T21:25:19.856Z,11.20
2018-02-10T21:27:47.457Z,11.73
2018-02-10T21:30:15.375Z,12.33
2018-02-10T21:32:43.234Z,13.77
2018-02-10T21:35:11.034Z,14.83
2018-02-10T21:37:39.538Z,9.77
2018-02-10T21:40:08.657Z,9.23
2018-02-10T21:42:37.499Z,16.00
2018-02-10T21:45:05.222Z,13.83
2018-02-10T21:47:32.963Z,8.87
2018-02-10T21:50:00.571Z,7.73
2018-02-10T21:52:28.396Z,12.57
2018-02-10T21:54:56.713Z,20.37
2018-02-10T21:57:25.062Z,13.90
2018-02-10T21:59:53.359Z,14.83
2018-02-10T22:02:20.895Z,10.80
2018-02-10T22:04:49.171Z,11.87
2018-02-10T22:07:17.620Z,22.87
2018-02-10T22:09:45.381Z,9.10
2018-02-10T22:12:12.949Z,11.70
2018-02-10T22:14:41.302Z,13.90
2018-02-10T22:17:09.149Z,14.90
2018-02-10T22:19:36.657Z,18.50
2018-02-10T22:22:05.014Z,15.57
2018-02-10T22:24:32.538Z,25.80
2018-02-10T22:27:00.009Z,17.47
2018-02-10T22:29:27.510Z,18.07
2018-02-10T22:31:55.830Z,21.03
2018-02-10T22:34:23.589Z,20.27
2018-02-10T22:36:51.121Z,23.07
2018-02-10T22:39:18.683Z,20.23
2018-02-10T22:41:46.239Z,17.37
2018-02-10T22:44:14.058Z,27.17
2018-02-10T22:46:41.594Z,14.60
2018-02-10T22:49:09.131Z,24.23
2018-02-10T22:51:37.674Z,19.90
2018-02-10T22:54:05.950Z,27.13
2018-02-10T22:56:33.438Z,23.13
2018-02-10T22:59:01.119Z,24.40
2018-02-10T23:01:28.721Z,19.13
2018-02-10T23:03:56.240Z,14.50
2018-02-10T23:06:23.715Z,14.30
2018-02-10T23:08:51.246Z,17.33
2018-02-10T23:11:18.823Z,17.83
2018-02-10T23:13:47.148Z,14.93
2018-02-10T23:16:15.428Z,17.90
2018-02-10T23:18:43.752Z,20.93
2018-02-10T23:21:11.453Z,25.30
2018-02-10T23:23:40.116Z,22.00
2018-02-10T23:26:07.829Z,24.43
2018-02-10T23:28:36.019Z,19.50
2018-02-10T23:31:03.791Z,16.23
2018-02-10T23:33:31.302Z,18.67
2018-02-10T23:35:59.039Z,21.40
2018-02-10T23:38:26.559Z,25.10
2018-02-10T23:40:54.339Z,26.20
2018-02-10T23:43:21.846Z,18.23
2018-02-10T23:45:49.391Z,23.33
2018-02-10T23:48:16.939Z,25.50
2018-02-10T23:50:44.435Z,24.40
2018-02-10T23:53:12.023Z,24.30
2018-02-10T23:55:39.502Z,24.17
2018-02-10T23:58:07.046Z,24.03
